Time;durP1;ratioP1;P1;durP2;ratioP2;P2;SDS_P1;SDS_P2;PMS_P1;PMS_P2;Temp;Humidity;BMP_temperature;BMP_pressure;BME280_temperature;BME280_humidity;BME280_pressure;Samples;Min_cycle;Max_cycle;Signal;HPM_P1;HPM_P2
2023/05/26 00:00:51;;;;;;;16.83;3.90;;;9.30;99.90;;;;;;5072972;28;20029;-66
2023/05/26 00:03:17;;;;;;;16.25;3.78;;;9.30;99.90;;;;;;5072826;28;20052;-67
2023/05/26 00:05:43;;;;;;;15.50;3.90;;;9.30;99.90;;;;;;5072531;28;20032;-63
2023/05/26 00:08:09;;;;;;;16.92;4.78;;;9.20;99.90;;;;;;5071224;28;20101;-64
2023/05/26 00:10:35;;;;;;;13.50;3.20;;;9.20;99.90;;;;;;5063902;28;20021;-68
2023/05/26 00:13:01;;;;;;;18.58;3.75;;;9.20;99.90;;;;;;5054884;28;20051;-68
2023/05/26 00:15:27;;;;;;;11.35;3.13;;;9.20;99.90;;;;;;5054413;28;20426;-66
2023/05/26 00:17:52;;;;;;;14.70;3.38;;;9.20;99.90;;;;;;5068717;28;20430;-66
2023/05/26 00:20:18;;;;;;;15.20;3.63;;;9.10;99.90;;;;;;5055342;28;20086;-70
2023/05/26 00:22:44;;;;;;;11.45;3.35;;;9.10;99.90;;;;;;5073211;28;20048;-68
2023/05/26 00:25:09;;;;;;;16.02;3.60;;;9.10;99.90;;;;;;5071428;28;20021;-65
2023/05/26 00:27:35;;;;;;;17.48;4.22;;;9.00;99.90;;;;;;5074611;28;20033;-66
2023/05/26 00:30:01;;;;;;;14.75;3.83;;;9.00;99.90;;;;;;5071259;28;20052;-66
2023/05/26 00:32:27;;;;;;;15.20;3.58;;;9.00;99.90;;;;;;5073776;28;20067;-64
2023/05/26 00:34:53;;;;;;;18.10;3.28;;;8.90;99.90;;;;;;5071507;28;20067;-64
2023/05/26 00:37:19;;;;;;;14.07;4.35;;;8.90;99.90;;;;;;5072696;28;20373;-64
2023/05/26 00:39:44;;;;;;;19.38;3.97;;;8.90;99.90;;;;;;5072112;28;20121;-64
2023/05/26 00:42:11;;;;;;;18.20;4.68;;;8.80;99.90;;;;;;5072600;28;20032;-64
2023/05/26 00:44:36;;;;;;;19.38;3.60;;;8.80;99.90;;;;;;5073017;28;20032;-64
2023/05/26 00:47:02;;;;;;;15.98;3.42;;;8.80;99.90;;;;;;5072767;28;20117;-65
2023/05/26 00:49:28;;;;;;;17.13;3.45;;;8.80;99.90;;;;;;5071962;28;20024;-64
2023/05/26 00:51:54;;;;;;;14.00;3.65;;;8.70;99.90;;;;;;5072464;28;20469;-64
2023/05/26 00:54:20;;;;;;;16.10;4.00;;;8.70;99.90;;;;;;5073360;28;20029;-64
2023/05/26 00:56:46;;;;;;;17.55;3.75;;;8.60;99.90;;;;;;5073181;28;20031;-64
2023/05/26 00:59:13;;;;;;;16.58;3.60;;;8.60;99.90;;;;;;5072383;28;20048;-64
2023/05/26 01:01:39;;;;;;;15.98;3.38;;;8.60;99.90;;;;;;5070023;28;20074;-64
2023/05/26 01:04:05;;;;;;;17.48;3.50;;;8.60;99.90;;;;;;5052448;28;20026;-66
2023/05/26 01:06:31;;;;;;;17.80;3.65;;;8.50;99.90;;;;;;5050110;28;20032;-63
2023/05/26 01:08:58;;;;;;;22.90;4.22;;;8.50;99.90;;;;;;5066892;28;20021;-63
2023/05/26 01:11:33;;;;;;;17.05;3.60;;;8.50;99.90;;;;;;5055039;28;20028;-64
2023/05/26 01:14:15;;;;;;;12.30;3.58;;;8.40;99.90;;;;;;5068221;28;20037;-64
2023/05/26 01:16:52;;;;;;;12.90;3.13;;;8.40;99.90;;;;;;5072136;28;20032;-64
2023/05/26 01:19:24;;;;;;;21.13;4.47;;;8.40;99.90;;;;;;5051684;28;20032;-64
2023/05/26 01:21:54;;;;;;;13.57;3.17;;;8.30;99.90;;;;;;5053153;28;20025;-64
2023/05/26 01:24:45;;;;;;;16.27;4.15;;;8.30;99.90;;;;;;5070222;28;20410;-64
2023/05/26 01:27:44;;;;;;;13.55;3.40;;;8.30;99.90;;;;;;5035559;28;20063;-65
2023/05/26 01:30:10;;;;;;;18.35;3.72;;;8.30;99.90;;;;;;5066302;28;20024;-64
2023/05/26 01:32:36;;;;;;;10.55;2.90;;;8.20;99.90;;;;;;5069631;28;20028;-64
2023/05/26 01:35:01;;;;;;;13.05;3.97;;;8.20;99.90;;;;;;5072297;28;20047;-64
2023/05/26 01:37:27;;;;;;;25.83;4.50;;;8.20;99.90;;;;;;5071521;28;20024;-64
2023/05/26 01:39:53;;;;;;;20.10;4.05;;;8.20;99.90;;;;;;5056192;28;20064;-64
2023/05/26 01:42:29;;;;;;;16.90;3.85;;;8.20;99.90;;;;;;5067806;28;20115;-65
2023/05/26 01:45:00;;;;;;;15.07;3.45;;;8.20;99.90;;;;;;5072306;28;20024;-65
2023/05/26 01:47:27;;;;;;;15.20;3.80;;;8.10;99.90;;;;;;5071565;28;20048;-66
2023/05/26 01:49:54;;;;;;;24.73;4.40;;;8.10;99.90;;;;;;5071140;28;20028;-63
2023/05/26 01:52:21;;;;;;;13.95;3.80;;;8.10;99.90;;;;;;5072491;28;20029;-64
2023/05/26 01:54:50;;;;;;;17.55;3.55;;;8.00;99.90;;;;;;5071475;28;20107;-64
2023/05/26 01:57:16;;;;;;;17.05;4.10;;;8.00;99.90;;;;;;5071885;28;20050;-64
2023/05/26 01:59:42;;;;;;;18.35;3.55;;;8.00;99.90;;;;;;5071155;28;20048;-64
2023/05/26 02:02:07;;;;;;;20.25;3.83;;;8.00;99.90;;;;;;5069114;28;20381;-63
2023/05/26 02:04:33;;;;;;;22.48;3.78;;;7.90;99.90;;;;;;5061015;28;20366;-64
2023/05/26 02:07:02;;;;;;;18.42;3.75;;;7.90;99.90;;;;;;5071201;28;20114;-66
2023/05/26 02:09:30;;;;;;;13.50;3.58;;;7.80;99.90;;;;;;5058876;28;20052;-64
2023/05/26 02:11:55;;;;;;;16.17;4.53;;;7.80;99.90;;;;;;5071768;28;20024;-65
2023/05/26 02:14:21;;;;;;;15.55;3.55;;;7.80;99.90;;;;;;5071145;28;20389;-66
2023/05/26 02:16:47;;;;;;;21.67;4.20;;;7.80;99.90;;;;;;5072005;28;20108;-64
2023/05/26 02:19:13;;;;;;;11.60;3.88;;;7.70;99.90;;;;;;5063896;28;20100;-63
2023/05/26 02:21:39;;;;;;;10.95;3.53;;;7.70;99.90;;;;;;5071176;28;20039;-63
2023/05/26 02:24:05;;;;;;;17.25;3.97;;;7.60;99.90;;;;;;5058769;28;20029;-64
2023/05/26 02:26:31;;;;;;;14.00;4.45;;;7.60;99.90;;;;;;5074272;28;20067;-64
2023/05/26 02:28:57;;;;;;;15.82;3.70;;;7.60;99.90;;;;;;5074093;28;20099;-64
2023/05/26 02:31:23;;;;;;;14.50;4.32;;;7.50;99.90;;;;;;5075503;28;20029;-64
2023/05/26 02:33:49;;;;;;;19.92;4.10;;;7.50;99.90;;;;;;5076173;28;20044;-65
2023/05/26 02:36:15;;;;;;;18.50;4.25;;;7.40;99.90;;;;;;5075102;28;20434;-65
2023/05/26 02:38:41;;;;;;;24.02;5.03;;;7.40;99.90;;;;;;5074898;28;20071;-66
2023/05/26 02:41:07;;;;;;;15.75;3.97;;;7.30;99.90;;;;;;5060779;28;20458;-66
2023/05/26 02:43:33;;;;;;;15.88;4.03;;;7.30;99.90;;;;;;5045335;28;20099;-64
2023/05/26 02:45:59;;;;;;;11.55;3.78;;;7.20;99.90;;;;;;5074501;28;20516;-64
2023/05/26 02:48:25;;;;;;;16.17;4.40;;;7.20;99.90;;;;;;5063909;28;20035;-65
2023/05/26 02:50:51;;;;;;;16.02;3.95;;;7.20;99.90;;;;;;5075216;28;20033;-65
2023/05/26 02:53:17;;;;;;;20.27;3.97;;;7.10;99.90;;;;;;5075385;28;20562;-64
2023/05/26 02:55:44;;;;;;;19.05;4.53;;;7.20;99.90;;;;;;5075487;28;20408;-65
2023/05/26 02:58:10;;;;;;;18.92;4.03;;;7.20;99.90;;;;;;5056550;28;20029;-65
2023/05/26 03:00:36;;;;;;;19.23;5.30;;;7.20;99.90;;;;;;5075044;28;20064;-65
2023/05/26 03:03:02;;;;;;;15.30;3.80;;;7.10;99.90;;;;;;5074044;28;20083;-65
2023/05/26 03:05:27;;;;;;;14.50;4.03;;;7.10;99.90;;;;;;5074774;28;20036;-65
2023/05/26 03:07:53;;;;;;;16.35;3.88;;;7.10;99.90;;;;;;5074569;28;20028;-65
2023/05/26 03:10:18;;;;;;;15.27;3.65;;;7.00;99.90;;;;;;5056331;28;20028;-65
2023/05/26 03:12:44;;;;;;;22.25;4.75;;;7.00;99.90;;;;;;5075268;28;20127;-65
2023/05/26 03:15:11;;;;;;;16.00;3.90;;;6.90;99.90;;;;;;5057880;28;20048;-65
2023/05/26 03:17:37;;;;;;;11.13;4.03;;;6.90;99.90;;;;;;5074185;28;20063;-64
2023/05/26 03:20:04;;;;;;;18.58;4.63;;;6.90;99.90;;;;;;5062824;28;20531;-65
2023/05/26 03:22:29;;;;;;;15.38;4.45;;;6.90;99.90;;;;;;5055717;28;20024;-66
2023/05/26 03:24:55;;;;;;;18.88;4.43;;;6.80;99.90;;;;;;5072075;28;20381;-65
2023/05/26 03:27:22;;;;;;;14.75;4.55;;;6.80;99.90;;;;;;5073470;28;20442;-65
2023/05/26 03:29:48;;;;;;;22.00;5.03;;;6.80;99.90;;;;;;5073649;28;20119;-65
2023/05/26 03:32:14;;;;;;;12.55;4.15;;;6.80;99.90;;;;;;5074679;28;20079;-64
2023/05/26 03:34:39;;;;;;;20.80;4.25;;;6.80;99.90;;;;;;5074628;28;20076;-64
2023/05/26 03:37:06;;;;;;;11.52;4.15;;;6.80;99.90;;;;;;5074003;28;20032;-65
2023/05/26 03:39:31;;;;;;;17.95;4.13;;;6.80;99.90;;;;;;5063442;28;20033;-65
2023/05/26 03:41:57;;;;;;;14.35;4.10;;;6.70;99.90;;;;;;5073450;28;20444;-64
2023/05/26 03:44:23;;;;;;;14.90;3.78;;;6.80;99.90;;;;;;5074439;28;20085;-65
2023/05/26 03:46:49;;;;;;;15.15;4.45;;;6.70;99.90;;;;;;5074844;28;20481;-65
2023/05/26 03:49:14;;;;;;;18.45;4.82;;;6.70;99.90;;;;;;5072377;28;20021;-64
2023/05/26 03:51:40;;;;;;;16.63;4.55;;;6.70;99.90;;;;;;5072183;28;20103;-65
2023/05/26 03:54:06;;;;;;;18.02;4.25;;;6.70;99.90;;;;;;5067091;28;20034;-65
2023/05/26 03:56:32;;;;;;;13.68;3.97;;;6.70;99.90;;;;;;5074207;28;20020;-66
2023/05/26 03:58:57;;;;;;;13.85;4.25;;;6.70;99.90;;;;;;5074003;28;20400;-69
2023/05/26 04:01:24;;;;;;;21.77;4.57;;;6.70;99.90;;;;;;5071556;28;20040;-70
2023/05/26 04:03:49;;;;;;;22.17;4.60;;;6.70;99.90;;;;;;5053407;28;20086;-67
2023/05/26 04:06:15;;;;;;;15.25;4.90;;;6.70;99.90;;;;;;5071918;28;20016;-67
2023/05/26 04:08:40;;;;;;;15.90;4.53;;;6.70;99.90;;;;;;5059755;28;20043;-70
2023/05/26 04:11:06;;;;;;;21.50;4.82;;;6.70;99.90;;;;;;5071196;28;20469;-72
2023/05/26 04:13:36;;;;;;;13.52;4.60;;;6.70;99.90;;;;;;5074130;28;20469;-69
2023/05/26 04:16:02;;;;;;;16.65;4.18;;;6.70;99.90;;;;;;5041142;28;20017;-69
2023/05/26 04:18:27;;;;;;;17.17;4.20;;;6.80;99.90;;;;;;5073716;28;20040;-72
2023/05/26 04:20:53;;;;;;;21.92;4.25;;;6.80;99.90;;;;;;5062539;28;20031;-69
2023/05/26 04:23:19;;;;;;;13.13;4.70;;;6.90;99.90;;;;;;5055607;28;20040;-68
2023/05/26 04:25:44;;;;;;;13.88;5.35;;;6.90;99.90;;;;;;5073449;28;20405;-68
2023/05/26 04:28:10;;;;;;;15.13;5.53;;;7.00;99.90;;;;;;5075050;28;20048;-70
2023/05/26 04:30:40;;;;;;;24.15;5.07;;;7.00;99.90;;;;;;5073983;28;20029;-66
2023/05/26 04:33:07;;;;;;;18.90;4.78;;;7.10;99.90;;;;;;5073301;28;20164;-65
2023/05/26 04:35:33;;;;;;;23.10;4.28;;;7.10;99.90;;;;;;5071637;28;20025;-64
2023/05/26 04:37:59;;;;;;;14.35;4.10;;;7.10;99.90;;;;;;5073525;28;20049;-65
2023/05/26 04:40:25;;;;;;;14.98;3.85;;;7.10;99.90;;;;;;5073601;28;20430;-65
2023/05/26 04:42:50;;;;;;;15.52;4.70;;;7.20;99.90;;;;;;5073102;28;20511;-65
2023/05/26 04:45:18;;;;;;;18.77;3.95;;;7.20;99.90;;;;;;5072785;28;20098;-65
2023/05/26 04:47:44;;;;;;;15.02;3.50;;;7.40;99.90;;;;;;5062850;28;20062;-66
2023/05/26 04:50:16;;;;;;;23.38;4.60;;;7.40;99.90;;;;;;5070794;28;20021;-65
2023/05/26 04:52:42;;;;;;;16.42;5.25;;;7.50;99.90;;;;;;5070689;28;20542;-65
2023/05/26 04:55:08;;;;;;;14.65;3.97;;;7.50;99.90;;;;;;5072563;28;20029;-65
2023/05/26 04:57:34;;;;;;;16.13;3.67;;;7.60;99.90;;;;;;5071943;28;20013;-67
2023/05/26 05:00:00;;;;;;;22.45;5.25;;;7.60;99.90;;;;;;5053642;28;20048;-65
2023/05/26 05:02:26;;;;;;;19.38;3.88;;;7.70;99.90;;;;;;5058606;28;20018;-65
2023/05/26 05:04:52;;;;;;;20.48;5.75;;;7.90;99.90;;;;;;5072201;28;20040;-64
2023/05/26 05:07:18;;;;;;;22.92;5.35;;;8.00;99.90;;;;;;5071396;28;20354;-66
2023/05/26 05:09:44;;;;;;;20.75;5.07;;;8.20;99.90;;;;;;5056757;28;20111;-63
2023/05/26 05:12:10;;;;;;;20.10;4.45;;;8.20;99.90;;;;;;5067449;28;20152;-64
2023/05/26 05:14:35;;;;;;;15.90;4.05;;;8.40;99.90;;;;;;5066684;28;20020;-65
2023/05/26 05:17:01;;;;;;;23.15;4.50;;;8.50;99.90;;;;;;5060412;28;20029;-64
2023/05/26 05:19:26;;;;;;;19.92;5.00;;;8.70;99.90;;;;;;5073299;28;20021;-65
2023/05/26 05:21:52;;;;;;;23.50;5.32;;;8.80;99.90;;;;;;5070153;28;20052;-64
2023/05/26 05:24:18;;;;;;;19.05;5.25;;;8.90;99.90;;;;;;5071290;28;20120;-66
2023/05/26 05:26:43;;;;;;;18.35;4.00;;;9.00;99.90;;;;;;5071766;28;20163;-65
2023/05/26 05:29:09;;;;;;;23.38;4.38;;;9.10;99.90;;;;;;5070991;28;20020;-64
2023/05/26 05:31:34;;;;;;;20.95;3.92;;;9.10;99.90;;;;;;5064519;28;20048;-64
2023/05/26 05:34:00;;;;;;;19.33;3.72;;;9.20;99.90;;;;;;5071959;28;20047;-66
2023/05/26 05:36:26;;;;;;;16.20;3.65;;;9.30;99.90;;;;;;5065930;28;20027;-67
2023/05/26 05:38:51;;;;;;;13.93;3.63;;;9.40;99.90;;;;;;5059066;28;20036;-64
2023/05/26 05:41:17;;;;;;;12.80;3.65;;;9.50;99.90;;;;;;5064482;28;20021;-64
2023/05/26 05:43:43;;;;;;;18.70;4.15;;;9.60;99.90;;;;;;5051334;28;20477;-65
2023/05/26 05:46:09;;;;;;;14.93;3.90;;;9.70;99.90;;;;;;5071504;28;20126;-64
2023/05/26 05:48:35;;;;;;;14.80;4.05;;;9.80;99.90;;;;;;5071381;28;20104;-64
2023/05/26 05:51:00;;;;;;;13.88;4.30;;;9.90;99.90;;;;;;5036004;28;20029;-65
2023/05/26 05:53:26;;;;;;;19.52;3.95;;;10.00;99.90;;;;;;5063772;28;20031;-66
2023/05/26 05:55:52;;;;;;;18.15;4.35;;;10.00;99.90;;;;;;5070964;28;20070;-67
2023/05/26 05:58:17;;;;;;;18.25;3.38;;;10.00;99.90;;;;;;5069826;28;20436;-67
2023/05/26 06:00:43;;;;;;;34.88;4.82;;;10.00;99.90;;;;;;5065375;28;20120;-67
2023/05/26 06:03:08;;;;;;;17.23;3.55;;;10.10;99.90;;;;;;5045166;28;20039;-67
2023/05/26 06:05:35;;;;;;;12.38;4.22;;;10.10;99.90;;;;;;5062734;28;20488;-67
2023/05/26 06:08:01;;;;;;;17.85;4.00;;;10.20;99.90;;;;;;5052002;28;20112;-69
2023/05/26 06:10:26;;;;;;;16.15;3.75;;;10.20;99.90;;;;;;5071009;28;20055;-70
2023/05/26 06:12:52;;;;;;;16.35;3.78;;;10.30;99.90;;;;;;5069724;28;20025;-68
2023/05/26 06:15:18;;;;;;;19.77;5.10;;;10.40;99.90;;;;;;5068032;28;20020;-66
2023/05/26 06:17:44;;;;;;;20.90;5.07;;;10.50;99.90;;;;;;5071784;28;20079;-67
2023/05/26 06:20:10;;;;;;;18.98;3.60;;;10.50;99.90;;;;;;5051889;28;20469;-69
2023/05/26 06:22:36;;;;;;;17.25;4.25;;;10.50;99.90;;;;;;5053292;28;20025;-71
2023/05/26 06:25:03;;;;;;;23.38;3.88;;;10.60;99.90;;;;;;5068079;28;20059;-66
2023/05/26 06:27:29;;;;;;;23.55;3.97;;;10.70;99.90;;;;;;5053735;28;20032;-72
2023/05/26 06:29:55;;;;;;;12.23;3.92;;;10.70;99.90;;;;;;5070437;28;20033;-72
2023/05/26 06:32:20;;;;;;;12.05;3.70;;;10.60;99.90;;;;;;5072464;28;20034;-73
2023/05/26 06:34:47;;;;;;;19.33;3.83;;;10.60;99.90;;;;;;5072343;28;20021;-64
2023/05/26 06:37:13;;;;;;;11.65;3.00;;;10.60;99.90;;;;;;5054865;28;20503;-64
2023/05/26 06:39:39;;;;;;;20.33;4.43;;;10.70;99.90;;;;;;5065837;28;20028;-65
2023/05/26 06:42:05;;;;;;;22.63;4.38;;;10.80;99.90;;;;;;5050960;28;20416;-64
2023/05/26 06:44:32;;;;;;;25.23;4.65;;;10.90;99.90;;;;;;5072183;28;20040;-65
2023/05/26 06:46:58;;;;;;;28.38;4.47;;;11.00;99.90;;;;;;5072504;28;20017;-64
2023/05/26 06:49:24;;;;;;;22.25;4.97;;;11.10;99.90;;;;;;5071762;28;20033;-64
2023/05/26 06:51:49;;;;;;;20.20;4.22;;;11.30;99.90;;;;;;5072646;28;20032;-66
2023/05/26 06:54:15;;;;;;;22.23;4.30;;;11.40;99.90;;;;;;5054480;28;20031;-64
2023/05/26 06:56:41;;;;;;;20.27;4.57;;;11.50;99.90;;;;;;5072056;28;20035;-64
2023/05/26 06:59:07;;;;;;;20.15;4.95;;;11.50;99.90;;;;;;5059649;28;20048;-65
2023/05/26 07:01:33;;;;;;;14.30;3.83;;;11.50;99.90;;;;;;5054925;28;20033;-63
2023/05/26 07:03:58;;;;;;;20.27;4.10;;;11.70;99.90;;;;;;5037794;28;20029;-65
2023/05/26 07:06:24;;;;;;;19.63;4.70;;;11.90;99.90;;;;;;5054637;28;20030;-64
2023/05/26 07:08:49;;;;;;;12.80;3.35;;;12.00;99.90;;;;;;5070916;28;20029;-65
2023/05/26 07:11:15;;;;;;;12.25;3.55;;;12.20;99.90;;;;;;5070115;28;20037;-65
2023/05/26 07:13:41;;;;;;;13.40;3.40;;;12.30;99.90;;;;;;5063383;28;20063;-64
2023/05/26 07:16:07;;;;;;;18.00;3.83;;;12.40;99.90;;;;;;5075128;28;20099;-63
2023/05/26 07:18:33;;;;;;;18.85;4.45;;;12.50;99.90;;;;;;5068917;28;20073;-64
2023/05/26 07:20:58;;;;;;;19.38;4.82;;;12.70;99.90;;;;;;5056667;28;20429;-64
2023/05/26 07:23:24;;;;;;;11.90;3.50;;;12.90;99.90;;;;;;5057367;28;20025;-65
2023/05/26 07:25:50;;;;;;;17.55;3.25;;;13.00;99.90;;;;;;5075680;28;20033;-65
2023/05/26 07:28:15;;;;;;;14.35;3.03;;;13.10;99.90;;;;;;5057535;28;20019;-65
2023/05/26 07:30:41;;;;;;;18.38;3.80;;;13.20;99.90;;;;;;5061848;28;20370;-65
2023/05/26 07:33:07;;;;;;;12.20;3.33;;;13.20;99.90;;;;;;5063455;28;20028;-62
2023/05/26 07:35:32;;;;;;;18.75;3.90;;;13.10;99.90;;;;;;5064627;28;20025;-60
2023/05/26 07:37:59;;;;;;;17.67;4.05;;;13.10;99.90;;;;;;5041077;28;20021;-63
2023/05/26 07:40:24;;;;;;;18.00;4.00;;;13.20;99.90;;;;;;5067797;28;20047;-63
2023/05/26 07:42:50;;;;;;;19.52;4.13;;;13.20;99.90;;;;;;5055261;28;20473;-62
2023/05/26 07:45:16;;;;;;;16.70;4.07;;;13.20;99.90;;;;;;5054850;28;20028;-63
2023/05/26 07:47:41;;;;;;;12.27;3.40;;;13.20;99.90;;;;;;5055381;28;20461;-62
2023/05/26 07:50:07;;;;;;;17.00;4.15;;;13.10;99.90;;;;;;5055618;28;20060;-63
2023/05/26 07:52:33;;;;;;;14.80;4.25;;;12.90;99.90;;;;;;5036996;28;20063;-62
2023/05/26 07:54:58;;;;;;;17.77;3.88;;;12.80;99.90;;;;;;5042976;28;20025;-64
2023/05/26 07:57:24;;;;;;;13.80;3.40;;;12.70;99.90;;;;;;5055362;28;20359;-63
2023/05/26 07:59:50;;;;;;;14.98;3.70;;;12.70;99.90;;;;;;5054417;28;20048;-67
2023/05/26 08:02:16;;;;;;;15.43;4.00;;;12.60;99.90;;;;;;5055121;28;20037;-63
2023/05/26 08:04:41;;;;;;;20.48;4.15;;;12.60;99.90;;;;;;5054842;28;20086;-65
2023/05/26 08:07:07;;;;;;;15.60;3.78;;;12.60;99.90;;;;;;5054819;28;20431;-63
2023/05/26 08:09:33;;;;;;;18.88;5.18;;;12.60;99.90;;;;;;5054833;28;20037;-65
2023/05/26 08:11:58;;;;;;;15.07;4.28;;;12.60;99.90;;;;;;5055093;28;20032;-67
2023/05/26 08:14:26;;;;;;;14.88;4.85;;;12.70;99.90;;;;;;5054308;28;20021;-64
2023/05/26 08:16:52;;;;;;;15.45;3.63;;;12.80;99.90;;;;;;5054972;28;20017;-63
2023/05/26 08:19:17;;;;;;;17.20;4.20;;;12.90;99.90;;;;;;5055075;28;20055;-63
2023/05/26 08:21:43;;;;;;;13.20;3.90;;;13.00;99.90;;;;;;5055179;28;20079;-69
2023/05/26 08:24:08;;;;;;;16.83;3.97;;;13.20;99.90;;;;;;5054825;28;20498;-69
2023/05/26 08:26:34;;;;;;;15.50;3.47;;;13.30;99.90;;;;;;5054826;28;20036;-67
2023/05/26 08:29:00;;;;;;;10.90;3.30;;;13.40;99.90;;;;;;5054586;28;20528;-67
2023/05/26 08:31:25;;;;;;;20.02;4.13;;;13.40;99.90;;;;;;5037099;28;20021;-68
2023/05/26 08:33:53;;;;;;;15.90;3.92;;;13.30;99.90;;;;;;5036140;28;20469;-67
2023/05/26 08:36:19;;;;;;;20.77;4.22;;;13.30;99.90;;;;;;5054414;28;20055;-63
2023/05/26 08:38:45;;;;;;;21.48;4.65;;;13.40;99.90;;;;;;5054559;28;20096;-65
2023/05/26 08:41:14;;;;;;;18.88;4.25;;;13.40;99.90;;;;;;5053899;28;20555;-64
2023/05/26 08:43:54;;;;;;;16.98;4.45;;;13.50;99.90;;;;;;5054713;28;20079;-65
2023/05/26 08:46:22;;;;;;;18.60;4.35;;;13.70;99.90;;;;;;5054323;28;20507;-65
2023/05/26 08:48:50;;;;;;;17.00;3.83;;;13.80;99.90;;;;;;5053732;28;20056;-64
2023/05/26 08:51:15;;;;;;;17.65;4.57;;;13.80;99.90;;;;;;5054313;28;20100;-66
2023/05/26 08:53:41;;;;;;;18.92;4.15;;;13.80;99.90;;;;;;5054353;28;20061;-66
2023/05/26 08:56:09;;;;;;;18.65;3.40;;;13.70;99.90;;;;;;5053312;28;20025;-66
2023/05/26 08:58:34;;;;;;;11.45;3.25;;;13.70;99.90;;;;;;5053699;28;20016;-65
2023/05/26 09:01:01;;;;;;;16.23;3.60;;;13.70;99.50;;;;;;5053920;28;20444;-64
2023/05/26 09:03:27;;;;;;;11.80;3.33;;;13.70;99.80;;;;;;5053123;28;20087;-65
2023/05/26 09:05:53;;;;;;;8.30;3.17;;;13.70;99.60;;;;;;5053833;28;20029;-64
2023/05/26 09:08:19;;;;;;;11.18;3.28;;;13.70;99.50;;;;;;5035939;28;20358;-64
2023/05/26 09:10:44;;;;;;;13.32;2.83;;;13.80;99.80;;;;;;5053238;28;20056;-65
2023/05/26 09:13:13;;;;;;;11.40;2.78;;;13.90;99.20;;;;;;5057836;28;20028;-64
2023/05/26 09:15:39;;;;;;;13.20;3.67;;;14.00;99.40;;;;;;5053773;28;20029;-64
2023/05/26 09:18:13;;;;;;;12.15;2.97;;;14.10;99.10;;;;;;5066827;28;20027;-65
2023/05/26 09:20:44;;;;;;;11.45;3.15;;;14.20;96.50;;;;;;5073360;28;20028;-65
2023/05/26 09:23:10;;;;;;;;;;;14.10;94.60;;;;;;5073730;28;20052;-64
2023/05/26 09:25:37;;;;;;;10.95;3.42;;;14.10;94.80;;;;;;5073389;28;20304;-64
2023/05/26 09:28:08;;;;;;;15.00;3.10;;;14.10;95.20;;;;;;5073716;28;20388;-64
2023/05/26 09:30:38;;;;;;;14.05;3.30;;;14.10;94.60;;;;;;5072676;28;20107;-66
2023/05/26 09:33:05;;;;;;;13.57;3.55;;;14.20;95.30;;;;;;5073699;28;20100;-65
2023/05/26 09:35:41;;;;;;;15.88;3.58;;;14.30;95.20;;;;;;5073034;28;20155;-64
2023/05/26 09:38:12;;;;;;;17.38;3.65;;;14.30;94.30;;;;;;5073218;28;20028;-64
2023/05/26 09:40:42;;;;;;;15.30;3.67;;;14.30;93.90;;;;;;5073468;28;20106;-64
2023/05/26 09:43:08;;;;;;;12.23;3.25;;;14.30;93.50;;;;;;5073496;28;20028;-64
2023/05/26 09:45:35;;;;;;;12.57;3.13;;;14.40;93.10;;;;;;5072849;28;20358;-64
2023/05/26 09:48:05;;;;;;;15.38;3.20;;;14.40;93.00;;;;;;5073431;28;20413;-65
2023/05/26 09:50:32;;;;;;;14.82;3.22;;;14.50;92.20;;;;;;5073065;28;20028;-66
2023/05/26 09:53:03;;;;;;;9.73;3.40;;;14.50;92.70;;;;;;5072737;28;20029;-69
2023/05/26 09:55:30;;;;;;;17.92;3.60;;;14.50;93.90;;;;;;5055293;28;20112;-68
2023/05/26 09:58:08;;;;;;;14.98;3.45;;;14.70;93.80;;;;;;5073217;28;20024;-70
2023/05/26 10:00:34;;;;;;;10.32;3.22;;;14.70;92.80;;;;;;5073001;28;20048;-68
2023/05/26 10:03:03;;;;;;;13.55;3.67;;;14.70;93.10;;;;;;5073303;28;20107;-66
2023/05/26 10:05:34;;;;;;;10.32;2.90;;;14.80;93.20;;;;;;5072435;28;20028;-65
2023/05/26 10:08:00;;;;;;;12.75;2.85;;;14.90;92.50;;;;;;5073169;28;20012;-67
2023/05/26 10:10:29;;;;;;;13.98;3.22;;;15.00;91.90;;;;;;5054998;28;20020;-67
2023/05/26 10:12:55;;;;;;;13.93;3.85;;;15.00;91.50;;;;;;5072300;28;20074;-69
2023/05/26 10:15:21;;;;;;;12.63;3.15;;;14.90;90.70;;;;;;5073277;28;20021;-68
2023/05/26 10:17:48;;;;;;;14.70;3.00;;;14.90;90.90;;;;;;5073204;28;20021;-70
2023/05/26 10:20:14;;;;;;;13.32;3.92;;;14.90;90.00;;;;;;5072296;28;20053;-70
2023/05/26 10:22:57;;;;;;;11.20;3.30;;;15.00;90.30;;;;;;5055196;28;20439;-69
2023/05/26 10:25:41;;;;;;;10.45;2.47;;;15.00;89.80;;;;;;5063988;28;20094;-68
2023/05/26 10:28:31;;;;;;;14.88;3.65;;;15.00;87.20;;;;;;5052382;28;20025;-68
2023/05/26 10:31:01;;;;;;;11.63;3.22;;;15.10;88.60;;;;;;5052887;28;20029;-70
2023/05/26 10:33:41;;;;;;;13.85;3.40;;;15.20;88.70;;;;;;5052398;28;20088;-68
2023/05/26 10:36:08;;;;;;;10.48;2.97;;;15.30;86.20;;;;;;5052756;28;20025;-62
2023/05/26 10:38:42;;;;;;;12.63;3.25;;;15.30;86.70;;;;;;5052802;28;20493;-64
2023/05/26 10:41:11;;;;;;;13.10;3.40;;;15.40;85.60;;;;;;5052166;28;20075;-63
2023/05/26 10:43:38;;;;;;;13.02;3.40;;;15.50;85.80;;;;;;5052818;28;20060;-62
2023/05/26 10:46:05;;;;;;;14.00;3.70;;;15.60;86.00;;;;;;5034574;28;20359;-65
2023/05/26 10:48:39;;;;;;;12.60;3.13;;;15.60;88.60;;;;;;5054056;28;20378;-63
2023/05/26 10:51:06;;;;;;;13.25;3.25;;;15.70;86.40;;;;;;5056616;28;20096;-63
2023/05/26 10:53:46;;;;;;;9.15;3.25;;;15.80;86.80;;;;;;5056833;28;20022;-63
2023/05/26 10:56:14;;;;;;;9.27;2.80;;;15.90;87.10;;;;;;5055948;28;20017;-64
2023/05/26 10:58:41;;;;;;;11.48;3.25;;;15.90;85.00;;;;;;5055987;28;20456;-65
2023/05/26 11:01:12;;;;;;;12.55;4.07;;;16.00;83.30;;;;;;5056392;28;20017;-66
2023/05/26 11:03:40;;;;;;;8.35;3.17;;;16.00;83.10;;;;;;5055727;28;20032;-65
2023/05/26 11:06:08;;;;;;;10.73;3.28;;;16.10;81.60;;;;;;5056311;28;20009;-64
2023/05/26 11:08:40;;;;;;;8.57;3.15;;;16.20;79.90;;;;;;5055470;28;20055;-64
2023/05/26 11:11:09;;;;;;;14.15;2.95;;;16.20;79.30;;;;;;5056368;28;20025;-64
2023/05/26 11:13:48;;;;;;;12.43;2.75;;;16.20;78.50;;;;;;5056024;28;20031;-65
2023/05/26 11:16:19;;;;;;;10.32;3.22;;;16.20;78.80;;;;;;5055599;28;20025;-65
2023/05/26 11:19:01;;;;;;;10.00;3.13;;;16.20;77.60;;;;;;5055946;28;20100;-64
2023/05/26 11:21:28;;;;;;;8.90;2.97;;;16.20;77.00;;;;;;5056270;28;20053;-64
2023/05/26 11:23:56;;;;;;;10.77;3.00;;;16.30;78.70;;;;;;5055340;28;20036;-69
2023/05/26 11:26:22;;;;;;;6.68;2.60;;;16.40;78.50;;;;;;5056042;28;20052;-68
2023/05/26 11:28:49;;;;;;;16.52;4.00;;;16.50;78.50;;;;;;5055889;28;20020;-66
2023/05/26 11:31:19;;;;;;;17.25;3.95;;;16.50;77.40;;;;;;5055131;28;20025;-67
2023/05/26 11:33:46;;;;;;;16.10;3.85;;;16.50;77.80;;;;;;5037984;28;20024;-66
2023/05/26 11:36:14;;;;;;;9.95;2.63;;;16.60;79.80;;;;;;5055715;28;20025;-68
2023/05/26 11:38:41;;;;;;;13.80;3.38;;;16.70;80.20;;;;;;5054928;28;20056;-67
2023/05/26 11:41:08;;;;;;;13.00;2.85;;;16.70;79.70;;;;;;5037810;28;20009;-69
2023/05/26 11:43:36;;;;;;;7.82;2.58;;;16.80;78.50;;;;;;5037096;28;20032;-66
2023/05/26 11:46:09;;;;;;;12.18;3.55;;;16.90;75.80;;;;;;5055789;28;20070;-66
2023/05/26 11:48:39;;;;;;;5.53;2.58;;;16.90;74.80;;;;;;5055503;28;20053;-66
2023/05/26 11:51:10;;;;;;;13.18;3.10;;;16.90;74.80;;;;;;5064811;28;20389;-67
2023/05/26 11:53:36;;;;;;;;;;;16.90;75.00;;;;;;5057885;28;20028;-68
2023/05/26 11:56:05;;;;;;;8.73;2.33;;;16.90;75.60;;;;;;5075231;28;19905;-64
2023/05/26 11:58:34;;;;;;;13.80;3.55;;;16.90;76.00;;;;;;5074143;28;20025;-68
2023/05/26 12:01:00;;;;;;;8.25;3.22;;;17.10;75.30;;;;;;5075358;28;20035;-69
2023/05/26 12:03:26;;;;;;;13.05;3.50;;;17.20;74.40;;;;;;5075246;28;20029;-68
2023/05/26 12:05:52;;;;;;;10.90;3.03;;;17.20;73.80;;;;;;5056979;28;20575;-66
2023/05/26 12:08:17;;;;;;;10.82;2.40;;;17.10;74.50;;;;;;5075283;28;20095;-64
2023/05/26 12:10:43;;;;;;;14.85;3.63;;;17.10;74.20;;;;;;5075086;28;20020;-67
2023/05/26 12:13:09;;;;;;;9.55;3.08;;;17.20;75.50;;;;;;5074618;28;20529;-69
2023/05/26 12:15:34;;;;;;;5.35;2.50;;;17.30;74.40;;;;;;5057299;28;20024;-69
2023/05/26 12:18:01;;;;;;;12.57;2.72;;;17.30;73.20;;;;;;5075197;28;20031;-68
2023/05/26 12:20:27;;;;;;;10.10;2.90;;;17.30;70.90;;;;;;5067594;28;20025;-69
2023/05/26 12:23:01;;;;;;;11.00;3.22;;;17.30;71.40;;;;;;5054894;28;20083;-68
2023/05/26 12:25:31;;;;;;;11.95;3.80;;;17.30;73.80;;;;;;5054721;28;20543;-69
2023/05/26 12:27:57;;;;;;;10.82;2.72;;;17.40;72.50;;;;;;5054328;28;20029;-67
2023/05/26 12:30:26;;;;;;;11.63;2.70;;;17.40;71.50;;;;;;5037102;28;20075;-69
2023/05/26 12:32:52;;;;;;;10.57;3.00;;;17.40;71.50;;;;;;5054156;28;20029;-67
2023/05/26 12:35:18;;;;;;;10.55;2.88;;;17.50;72.30;;;;;;5054771;28;20053;-68
2023/05/26 12:37:44;;;;;;;10.48;2.50;;;17.60;69.70;;;;;;5054678;28;20057;-64
2023/05/26 12:40:10;;;;;;;12.75;3.15;;;17.60;69.90;;;;;;5035858;28;20024;-65
2023/05/26 12:42:36;;;;;;;10.25;2.10;;;17.60;69.50;;;;;;5054600;28;20039;-65